createdAt,value
2018-06-18T02:28:59.945Z,8.33
2018-06-18T02:51:50.745Z,5.80
2018-06-18T03:18:03.161Z,7.23
2018-06-18T03:55:40.198Z,6.50
2018-06-18T04:01:29.599Z,6.93
2018-06-18T04:07:50.294Z,7.63
2018-06-18T04:10:54.433Z,8.03
2018-06-18T04:14:16.076Z,5.93
2018-06-18T04:16:59.359Z,7.17
2018-06-18T04:19:47.669Z,7.27
2018-06-18T04:25:55.358Z,8.50
2018-06-18T04:28:52.880Z,8.27
2018-06-18T04:33:20.463Z,8.20
2018-06-18T04:39:12.509Z,8.20
2018-06-18T04:42:02.100Z,7.90
2018-06-18T04:44:48.344Z,9.03
2018-06-18T04:47:33.672Z,8.27
2018-06-18T04:53:03.485Z,7.73
2018-06-18T04:55:38.392Z,9.07
2018-06-18T04:58:27.816Z,8.40
2018-06-18T05:03:58.521Z,8.43
2018-06-18T05:06:36.019Z,10.47
2018-06-18T05:11:20.455Z,9.50
2018-06-18T05:13:52.201Z,10.20
2018-06-18T05:16:37.218Z,10.43
2018-06-18T05:19:07.710Z,9.10
2018-06-18T05:21:36.991Z,10.60
2018-06-18T05:24:06.955Z,8.53
2018-06-18T05:26:38.653Z,9.73
2018-06-18T05:29:07.866Z,9.73
2018-06-18T05:31:37.018Z,9.57
2018-06-18T05:34:06.579Z,9.10
2018-06-18T05:36:35.674Z,9.13
2018-06-18T05:39:07.161Z,8.50
2018-06-18T05:41:36.427Z,7.60
2018-06-18T05:44:05.602Z,7.50
2018-06-18T05:46:34.585Z,7.20
2018-06-18T05:49:03.764Z,7.17
2018-06-18T05:51:34.149Z,6.73
2018-06-18T05:54:03.325Z,7.30
2018-06-18T05:56:33.717Z,6.13
2018-06-18T05:59:02.875Z,7.07
2018-06-18T06:01:33.741Z,7.27
2018-06-18T06:04:03.519Z,5.50
2018-06-18T06:06:37.482Z,5.27
2018-06-18T06:09:12.652Z,7.20
2018-06-18T06:11:43.022Z,5.67
2018-06-18T06:14:12.076Z,6.07
2018-06-18T06:16:41.080Z,6.27
2018-06-18T06:19:11.191Z,6.10
2018-06-18T06:21:40.356Z,5.87
2018-06-18T06:24:12.033Z,5.07
2018-06-18T06:26:48.940Z,5.30
2018-06-18T06:29:18.188Z,5.53
2018-06-18T06:31:49.599Z,5.90
2018-06-18T06:34:18.511Z,7.27
2018-06-18T06:36:47.534Z,6.13
2018-06-18T06:39:16.625Z,4.50
2018-06-18T06:41:49.630Z,5.70
2018-06-18T06:44:18.553Z,4.83
2018-06-18T06:46:47.506Z,5.20
2018-06-18T06:49:16.512Z,5.33
2018-06-18T06:51:45.488Z,5.90
2018-06-18T06:54:16.583Z,5.20
2018-06-18T06:56:45.520Z,5.00
2018-06-18T06:59:14.527Z,5.60
2018-06-18T07:01:43.890Z,4.50
2018-06-18T07:04:12.969Z,4.53
2018-06-18T07:06:42.128Z,4.60
2018-06-18T07:09:12.573Z,4.37
2018-06-18T07:11:41.466Z,4.60
2018-06-18T07:14:10.483Z,5.23
2018-06-18T07:16:39.487Z,4.43
2018-06-18T07:19:08.580Z,4.80
2018-06-18T07:21:37.583Z,5.40
2018-06-18T07:24:06.522Z,4.73
2018-06-18T07:26:35.423Z,4.33
2018-06-18T07:29:04.477Z,3.60
2018-06-18T07:31:33.596Z,5.07
2018-06-18T07:34:02.509Z,4.27
2018-06-18T07:36:31.459Z,4.30
2018-06-18T07:39:00.571Z,4.43
2018-06-18T07:41:29.498Z,4.00
2018-06-18T07:43:58.428Z,3.97
2018-06-18T07:46:27.416Z,4.07
2018-06-18T07:48:56.323Z,4.60
2018-06-18T07:51:25.408Z,4.40
2018-06-18T07:53:54.360Z,4.83
2018-06-18T07:56:23.383Z,5.13
2018-06-18T07:59:03.706Z,5.90
2018-06-18T08:01:32.679Z,5.93
2018-06-18T08:04:03.236Z,5.80
2018-06-18T08:06:32.096Z,6.60
2018-06-18T08:09:02.619Z,6.40
2018-06-18T08:11:31.668Z,6.70
2018-06-18T08:14:00.537Z,5.20
2018-06-18T08:16:29.488Z,5.10
2018-06-18T08:18:59.409Z,5.40
2018-06-18T08:21:30.585Z,5.17
2018-06-18T08:23:59.565Z,6.07
2018-06-18T08:26:29.125Z,5.30
2018-06-18T08:28:58.147Z,7.20
2018-06-18T08:31:27.440Z,5.80
2018-06-18T08:33:56.359Z,6.07
2018-06-18T08:36:25.642Z,5.57
2018-06-18T08:38:54.698Z,5.90
2018-06-18T08:41:23.770Z,4.70
2018-06-18T08:43:52.705Z,4.33
2018-06-18T08:46:22.337Z,2.97
2018-06-18T08:49:09.570Z,3.70
2018-06-18T08:51:43.915Z,3.30
2018-06-18T08:54:17.998Z,3.40
2018-06-18T08:56:52.136Z,3.37
2018-06-18T08:59:26.197Z,2.80
2018-06-18T09:01:55.289Z,2.50
2018-06-18T09:04:29.427Z,2.27
2018-06-18T09:09:05.137Z,2.93
2018-06-18T09:11:34.697Z,2.50
2018-06-18T09:14:03.662Z,2.57
2018-06-18T09:16:32.624Z,2.73
2018-06-18T09:19:01.692Z,2.63
2018-06-18T09:21:30.707Z,3.03
2018-06-18T09:24:01.155Z,2.53
2018-06-18T09:26:51.608Z,3.27
2018-06-18T09:29:24.692Z,2.70
2018-06-18T09:31:56.439Z,3.47
2018-06-18T09:34:25.512Z,3.30
2018-06-18T09:36:54.480Z,2.87
2018-06-18T09:39:23.447Z,3.60
2018-06-18T09:41:52.451Z,3.83
2018-06-18T09:44:21.302Z,4.03
2018-06-18T09:46:50.720Z,4.37
2018-06-18T09:49:24.917Z,4.33
2018-06-18T09:52:00.276Z,4.60
2018-06-18T09:54:34.236Z,5.60
2018-06-18T09:57:08.205Z,4.90
2018-06-18T09:59:42.114Z,4.73
2018-06-18T10:02:11.727Z,6.00
2018-06-18T10:04:41.811Z,5.80
2018-06-18T10:07:10.910Z,5.37
2018-06-18T10:09:39.844Z,5.80
2018-06-18T10:12:11.863Z,5.17
2018-06-18T10:14:42.560Z,4.90
2018-06-18T10:17:14.800Z,5.13
2018-06-18T10:19:44.031Z,4.53
2018-06-18T10:22:14.240Z,4.87
2018-06-18T10:24:43.229Z,5.00
2018-06-18T10:27:12.270Z,4.33
2018-06-18T10:29:41.102Z,5.50
2018-06-18T10:32:14.984Z,4.13
2018-06-18T10:38:15.654Z,4.90
2018-06-18T10:40:57.832Z,5.23
2018-06-18T10:43:36.572Z,3.87
2018-06-18T10:46:12.248Z,4.20
2018-06-18T10:48:40.946Z,4.40
2018-06-18T10:51:09.739Z,4.93
2018-06-18T10:53:41.387Z,5.00
2018-06-18T10:56:10.319Z,5.93
2018-06-18T10:58:40.721Z,5.47
2018-06-18T11:01:11.836Z,5.67
2018-06-18T11:03:47.442Z,6.53
2018-06-18T11:06:26.214Z,5.60
2018-06-18T11:09:04.675Z,5.47
2018-06-18T11:11:35.214Z,5.90
2018-06-18T11:17:24.550Z,6.03
2018-06-18T11:29:38.257Z,6.17
2018-06-18T11:34:57.623Z,5.50
2018-06-18T11:38:28.926Z,5.50
2018-06-18T11:40:59.833Z,4.30
2018-06-18T11:43:52.753Z,4.37
2018-06-18T11:46:23.208Z,4.80
2018-06-18T11:48:59.209Z,4.47
2018-06-18T11:51:31.930Z,4.90
2018-06-18T11:56:51.618Z,4.77
2018-06-18T11:59:26.041Z,4.70
2018-06-18T12:02:00.292Z,5.07
2018-06-18T12:04:36.823Z,4.23
2018-06-18T12:07:16.080Z,4.47
2018-06-18T12:09:50.060Z,4.70
2018-06-18T12:12:29.938Z,4.00
2018-06-18T12:14:59.732Z,5.43
2018-06-18T12:17:41.763Z,5.37
2018-06-18T12:20:25.317Z,5.77
2018-06-18T12:22:54.478Z,5.20
2018-06-18T12:25:26.025Z,4.00
2018-06-18T12:27:55.395Z,4.53
2018-06-18T12:30:26.280Z,4.77
2018-06-18T12:33:01.855Z,5.10
2018-06-18T12:35:33.354Z,5.07
2018-06-18T12:38:02.492Z,4.63
2018-06-18T12:41:05.141Z,4.77
2018-06-18T12:43:39.304Z,4.30
2018-06-18T12:46:28.099Z,4.80
2018-06-18T12:49:06.428Z,4.00
2018-06-18T12:51:50.650Z,4.13
2018-06-18T12:54:48.417Z,4.17
2018-06-18T12:57:29.560Z,4.30
2018-06-18T12:59:58.539Z,3.37
2018-06-18T13:02:35.788Z,4.00
2018-06-18T13:05:04.934Z,3.67
2018-06-18T13:07:35.999Z,3.90
2018-06-18T13:10:05.454Z,3.80
2018-06-18T13:12:36.121Z,4.27
2018-06-18T13:15:09.967Z,5.20
2018-06-18T13:17:49.526Z,5.10
2018-06-18T13:20:21.269Z,4.40
2018-06-18T13:22:51.416Z,4.23
2018-06-18T13:25:26.084Z,4.27
2018-06-18T13:28:00.532Z,4.60
2018-06-18T13:30:35.410Z,4.53
2018-06-18T13:33:10.558Z,4.33
2018-06-18T13:35:41.313Z,4.60
2018-06-18T13:38:30.588Z,4.03
2018-06-18T13:41:16.519Z,6.67
2018-06-18T13:43:58.494Z,4.73
2018-06-18T13:46:35.702Z,3.73
2018-06-18T13:49:09.005Z,3.70
2018-06-18T13:51:50.765Z,5.00
2018-06-18T13:54:22.809Z,4.20
2018-06-18T13:56:54.602Z,4.10
2018-06-18T13:59:35.906Z,3.70
2018-06-18T14:02:13.133Z,3.67
2018-06-18T14:05:01.688Z,3.57
2018-06-18T14:07:38.703Z,3.10
2018-06-18T14:10:28.575Z,3.10
2018-06-18T14:13:09.475Z,4.13
2018-06-18T14:16:07.851Z,3.13
2018-06-18T14:18:38.964Z,3.70
2018-06-18T14:21:17.185Z,3.77
2018-06-18T14:23:47.211Z,3.20
2018-06-18T14:26:19.409Z,3.40
2018-06-18T14:28:55.092Z,2.97
2018-06-18T14:31:39.535Z,3.80
2018-06-18T14:34:15.318Z,4.03
2018-06-18T14:45:12.526Z,3.43
2018-06-18T14:47:59.598Z,2.77
2018-06-18T14:50:43.581Z,3.83
2018-06-18T14:56:23.984Z,3.20
2018-06-18T15:04:14.553Z,3.70
2018-06-18T15:06:51.044Z,3.50
2018-06-18T15:09:36.407Z,4.03
2018-06-18T15:12:08.033Z,3.53
2018-06-18T15:14:51.073Z,3.47
2018-06-18T15:17:22.293Z,3.37
2018-06-18T15:20:10.511Z,3.00
2018-06-18T15:26:11.258Z,3.10
2018-06-18T15:29:04.901Z,3.40
2018-06-18T15:31:42.277Z,3.53
2018-06-18T15:34:23.958Z,4.70
2018-06-18T15:36:55.001Z,3.83
2018-06-18T15:39:31.509Z,3.67
2018-06-18T15:44:53.130Z,4.00
2018-06-18T15:50:56.626Z,4.13
2018-06-18T15:53:32.545Z,3.10
2018-06-18T15:59:21.934Z,3.23
2018-06-18T16:05:24.049Z,3.53
2018-06-18T16:35:38.082Z,2.70
2018-06-18T16:46:29.453Z,2.80
2018-06-18T17:12:56.615Z,6.17
2018-06-18T17:17:55.574Z,5.00
2018-06-18T17:24:58.773Z,5.07
2018-06-18T17:34:54.610Z,4.87
2018-06-18T17:42:13.421Z,4.10
2018-06-18T17:44:56.328Z,3.80
2018-06-18T17:53:25.358Z,3.93
2018-06-18T18:02:00.281Z,2.60
2018-06-18T18:04:40.072Z,2.20
2018-06-18T18:07:35.882Z,2.77
2018-06-18T18:10:13.115Z,3.20
2018-06-18T18:12:52.212Z,2.53
2018-06-18T18:15:31.428Z,2.70
2018-06-18T18:18:19.141Z,2.13
2018-06-18T18:20:57.092Z,2.60
2018-06-18T18:23:30.512Z,2.40
2018-06-18T18:25:59.691Z,2.10
2018-06-18T18:28:32.344Z,2.47
2018-06-18T18:31:03.486Z,2.67
2018-06-18T18:33:39.525Z,3.10
2018-06-18T18:36:09.913Z,4.70
2018-06-18T18:38:45.914Z,3.93
2018-06-18T18:41:15.306Z,3.03
2018-06-18T18:43:49.453Z,3.00
2018-06-18T18:46:21.709Z,3.30
2018-06-18T18:48:54.954Z,2.87
2018-06-18T18:51:54.672Z,3.17
2018-06-18T18:54:37.821Z,2.60
2018-06-18T19:00:07.022Z,2.40
2018-06-18T19:02:41.193Z,2.80
2018-06-18T19:05:10.723Z,2.37
2018-06-18T19:07:46.158Z,2.70
2018-06-18T19:10:24.797Z,3.10
2018-06-18T19:12:56.681Z,4.57
2018-06-18T19:15:26.375Z,5.70
2018-06-18T19:17:56.723Z,5.57
2018-06-18T19:20:35.943Z,5.07
2018-06-18T19:23:06.094Z,4.07
2018-06-18T19:25:36.532Z,4.97
2018-06-18T19:28:05.839Z,4.37
2018-06-18T19:30:37.803Z,5.30
2018-06-18T19:33:14.135Z,7.47
2018-06-18T19:35:43.868Z,7.83
2018-06-18T19:38:15.088Z,7.97
2018-06-18T19:40:45.093Z,9.33
2018-06-18T19:43:16.038Z,7.00
2018-06-18T19:45:48.696Z,8.20
2018-06-18T19:48:22.072Z,7.17
2018-06-18T19:50:51.300Z,5.60
2018-06-18T19:53:20.475Z,6.77
2018-06-18T19:55:50.437Z,6.57
2018-06-18T19:58:19.800Z,8.23
2018-06-18T20:00:57.527Z,7.50
2018-06-18T20:03:26.875Z,5.80
2018-06-18T20:05:57.202Z,7.37
2018-06-18T20:08:28.807Z,7.27
2018-06-18T20:10:58.275Z,6.63
2018-06-18T20:13:27.583Z,7.30
2018-06-18T20:15:57.050Z,8.80
2018-06-18T20:18:26.199Z,13.17
2018-06-18T20:20:55.707Z,19.57
2018-06-18T20:23:27.889Z,38.10
2018-06-18T20:26:03.937Z,33.97
2018-06-18T20:28:33.316Z,22.67
2018-06-18T20:31:03.374Z,23.27
2018-06-18T20:33:34.949Z,19.27
2018-06-18T20:36:12.236Z,14.33
2018-06-18T20:38:44.605Z,10.30
2018-06-18T20:45:24.196Z,7.13
2018-06-18T20:51:18.659Z,10.10
2018-06-18T20:59:07.022Z,12.27
2018-06-18T21:40:52.286Z,5.03
2018-06-18T21:44:06.092Z,5.07
2018-06-18T22:02:44.805Z,8.33
2018-06-18T22:24:04.214Z,5.33
2018-06-18T22:27:35.332Z,5.90
2018-06-18T22:40:48.176Z,4.63
2018-06-18T22:48:20.264Z,4.30
2018-06-18T22:54:34.193Z,5.37
2018-06-18T22:57:45.476Z,4.80
2018-06-18T23:02:39.070Z,4.97
2018-06-18T23:15:17.060Z,6.10
2018-06-18T23:23:15.607Z,4.33
2018-06-18T23:49:57.484Z,7.00
